createdAt,value
2022-08-11T00:00:36.501Z,66.53
2022-08-11T00:01:36.466Z,66.53
2022-08-11T00:02:36.537Z,66.33
2022-08-11T00:03:43.163Z,66.53
2022-08-11T00:04:36.389Z,66.91
2022-08-11T00:05:36.360Z,67.11
2022-08-11T00:06:36.332Z,67.21
2022-08-11T00:07:36.309Z,67.30
2022-08-11T00:08:36.279Z,67.21
2022-08-11T00:09:39.190Z,67.59
2022-08-11T00:10:36.227Z,67.21
2022-08-11T00:11:36.200Z,67.59
2022-08-11T00:12:36.349Z,67.40
2022-08-11T00:13:36.156Z,67.40
2022-08-11T00:14:37.876Z,67.21
2022-08-11T00:15:36.091Z,67.17
2022-08-11T00:16:36.058Z,67.46
2022-08-11T00:17:36.032Z,67.59
2022-08-11T00:18:36.007Z,67.46
2022-08-11T00:20:12.232Z,67.17
2022-08-11T00:20:35.950Z,68.04
2022-08-11T00:22:04.534Z,67.56
2022-08-11T00:22:35.895Z,67.75
2022-08-11T00:23:35.868Z,68.33
2022-08-11T00:24:52.067Z,68.33
2022-08-11T00:25:35.817Z,68.43
2022-08-11T00:26:35.786Z,68.14
2022-08-11T00:27:35.758Z,68.72
2022-08-11T00:28:35.729Z,68.33
2022-08-11T00:29:35.702Z,68.62
2022-08-11T00:30:35.669Z,68.88
2022-08-11T00:31:35.643Z,68.72
2022-08-11T00:32:35.685Z,68.78
2022-08-11T00:33:41.445Z,68.78
2022-08-11T00:34:35.571Z,68.98
2022-08-11T00:35:50.977Z,68.98
2022-08-11T00:36:35.510Z,69.26
2022-08-11T00:37:35.475Z,68.78
2022-08-11T00:38:35.448Z,69.26
2022-08-11T00:39:35.466Z,69.65
2022-08-11T00:40:35.399Z,69.65
2022-08-11T00:41:35.373Z,69.94
2022-08-11T00:42:35.341Z,70.62
2022-08-11T00:43:35.311Z,70.78
2022-08-11T00:44:35.298Z,71.36
2022-08-11T00:45:35.259Z,71.26
2022-08-11T00:46:35.224Z,71.06
2022-08-11T00:47:35.200Z,71.16
2022-08-11T00:48:35.170Z,71.06
2022-08-11T00:49:35.143Z,70.87
2022-08-11T00:50:35.110Z,70.87
2022-08-11T00:52:04.760Z,71.16
2022-08-11T00:52:35.057Z,71.06
2022-08-11T00:53:35.029Z,71.06
2022-08-11T00:54:35.000Z,71.12
2022-08-11T00:55:34.972Z,70.84
2022-08-11T00:56:34.945Z,71.03
2022-08-11T00:57:37.457Z,70.74
2022-08-11T00:58:34.965Z,71.22
2022-08-11T00:59:36.052Z,71.61
2022-08-11T01:00:34.946Z,71.61
2022-08-11T01:01:34.825Z,71.32
2022-08-11T01:02:34.777Z,71.70
2022-08-11T01:03:34.752Z,72.09
2022-08-11T01:04:34.721Z,72.15
2022-08-11T01:05:34.694Z,72.38
2022-08-11T01:06:34.661Z,72.09
2022-08-11T01:08:02.766Z,72.25
2022-08-11T01:08:34.635Z,71.96
2022-08-11T01:09:34.582Z,72.67
2022-08-11T01:10:34.559Z,72.63
2022-08-11T01:11:34.532Z,72.67
2022-08-11T01:12:34.493Z,72.54
2022-08-11T01:13:34.468Z,72.92
2022-08-11T01:14:34.799Z,72.63
2022-08-11T01:15:34.434Z,73.02
2022-08-11T01:16:34.382Z,73.60
2022-08-11T01:17:34.353Z,73.50
2022-08-11T01:18:34.321Z,73.50
2022-08-11T01:19:34.297Z,73.60
2022-08-11T01:20:47.290Z,73.31
2022-08-11T01:21:34.238Z,73.21
2022-08-11T01:22:34.208Z,73.60
2022-08-11T01:23:34.183Z,73.60
2022-08-11T01:24:34.159Z,73.69
2022-08-11T01:25:34.125Z,73.60
2022-08-11T01:26:34.092Z,73.50
2022-08-11T01:27:34.084Z,73.60
2022-08-11T01:28:34.036Z,73.69
2022-08-11T01:29:34.009Z,73.60
2022-08-11T01:30:33.980Z,73.89
2022-08-11T01:31:33.954Z,73.41
2022-08-11T01:32:33.922Z,73.21
2022-08-11T01:33:33.893Z,74.08
2022-08-11T01:34:33.864Z,73.89
2022-08-11T01:35:33.839Z,74.37
2022-08-11T01:36:33.810Z,74.33
2022-08-11T01:37:33.779Z,74.52
2022-08-11T01:38:33.754Z,74.05
2022-08-11T01:39:33.754Z,74.05
2022-08-11T01:40:33.692Z,74.52
2022-08-11T01:41:33.676Z,74.62
2022-08-11T01:42:33.638Z,74.43
2022-08-11T01:43:33.613Z,75.05
2022-08-11T01:44:33.581Z,75.24
2022-08-11T01:45:33.552Z,75.49
2022-08-11T01:46:33.521Z,75.49
2022-08-11T01:47:33.495Z,75.49
2022-08-11T01:48:33.469Z,75.49
2022-08-11T01:50:08.717Z,75.49
2022-08-11T01:50:33.408Z,75.78
2022-08-11T01:51:33.382Z,76.07
2022-08-11T01:52:34.701Z,76.26
2022-08-11T01:53:33.329Z,76.07
2022-08-11T01:54:33.290Z,76.17
2022-08-11T01:55:33.264Z,75.97
2022-08-11T01:56:33.232Z,76.17
2022-08-11T01:57:33.204Z,75.97
2022-08-11T01:58:40.778Z,75.88
2022-08-11T01:59:33.152Z,76.13
2022-08-11T02:00:33.202Z,75.84
2022-08-11T02:01:33.091Z,75.93
2022-08-11T02:02:33.129Z,76.51
2022-08-11T02:03:33.033Z,76.23
2022-08-11T02:04:33.008Z,76.32
2022-08-11T02:05:32.974Z,76.32
2022-08-11T02:06:32.946Z,76.80
2022-08-11T02:07:32.934Z,76.32
2022-08-11T02:08:33.702Z,76.71
2022-08-11T02:09:32.857Z,76.71
2022-08-11T02:10:35.349Z,77.00
2022-08-11T02:11:35.703Z,76.32
2022-08-11T02:12:32.767Z,76.51
2022-08-11T02:13:35.671Z,76.42
2022-08-11T02:14:32.712Z,77.09
2022-08-11T02:15:32.685Z,76.80
2022-08-11T02:16:32.651Z,77.19
2022-08-11T02:17:32.622Z,77.19
2022-08-11T02:18:32.593Z,77.06
2022-08-11T02:19:32.565Z,77.38
2022-08-11T02:20:32.532Z,77.38
2022-08-11T02:21:32.503Z,77.48
2022-08-11T02:22:32.536Z,77.48
2022-08-11T02:24:07.166Z,77.44
2022-08-11T02:24:32.421Z,77.28
2022-08-11T02:25:32.404Z,77.25
2022-08-11T02:26:32.375Z,77.53
2022-08-11T02:27:32.342Z,77.34
2022-08-11T02:28:34.732Z,77.53
2022-08-11T02:29:32.274Z,77.44
2022-08-11T02:30:32.247Z,77.44
2022-08-11T02:32:25.463Z,78.02
2022-08-11T02:32:32.187Z,77.25
2022-08-11T02:33:32.154Z,77.15
2022-08-11T02:34:32.125Z,77.92
2022-08-11T02:35:32.103Z,77.06
2022-08-11T02:36:32.067Z,77.83
2022-08-11T02:37:32.038Z,78.21
2022-08-11T02:38:32.009Z,77.63
2022-08-11T02:39:32.049Z,77.73
2022-08-11T02:40:31.948Z,78.02
2022-08-11T02:41:31.923Z,77.83
2022-08-11T02:42:35.576Z,78.02
2022-08-11T02:43:31.861Z,78.11
2022-08-11T02:44:31.832Z,78.69
2022-08-11T02:45:31.803Z,78.69
2022-08-11T02:46:31.777Z,77.98
2022-08-11T02:47:31.743Z,78.11
2022-08-11T02:48:31.710Z,78.59
2022-08-11T02:49:31.683Z,78.40
2022-08-11T02:50:31.653Z,78.50
2022-08-11T02:51:31.625Z,78.36
2022-08-11T02:52:31.594Z,78.65
2022-08-11T02:53:31.566Z,78.27
2022-08-11T02:54:31.544Z,78.56
2022-08-11T02:55:55.568Z,78.56
2022-08-11T02:56:31.476Z,77.88
2022-08-11T02:57:31.446Z,77.98
2022-08-11T02:58:31.417Z,78.08
2022-08-11T02:59:31.387Z,77.78
2022-08-11T03:00:31.359Z,77.78
2022-08-11T03:01:31.361Z,78.08
2022-08-11T03:02:31.298Z,77.88
2022-08-11T03:03:31.285Z,78.27
2022-08-11T03:04:37.396Z,78.36
2022-08-11T03:05:31.215Z,78.65
2022-08-11T03:06:31.178Z,77.94
2022-08-11T03:07:31.153Z,78.61
2022-08-11T03:08:31.123Z,78.36
2022-08-11T03:09:31.093Z,77.94
2022-08-11T03:10:31.061Z,78.52
2022-08-11T03:11:31.034Z,78.61
2022-08-11T03:12:31.002Z,78.27
2022-08-11T03:13:30.973Z,78.52
2022-08-11T03:14:30.943Z,78.33
2022-08-11T03:15:30.915Z,78.33
2022-08-11T03:16:30.884Z,78.42
2022-08-11T03:17:30.851Z,78.71
2022-08-11T03:18:30.819Z,78.71
2022-08-11T03:19:30.791Z,78.81
2022-08-11T03:20:38.082Z,78.52
2022-08-11T03:22:01.729Z,78.61
2022-08-11T03:22:30.702Z,78.90
2022-08-11T03:23:30.676Z,79.19
2022-08-11T03:24:30.643Z,78.71
2022-08-11T03:25:30.623Z,79.00
2022-08-11T03:26:30.584Z,79.00
2022-08-11T03:27:30.562Z,79.19
2022-08-11T03:28:30.524Z,79.77
2022-08-11T03:29:30.498Z,79.44
2022-08-11T03:30:30.463Z,79.58
2022-08-11T03:31:30.439Z,79.48
2022-08-11T03:32:30.405Z,79.48
2022-08-11T03:33:30.372Z,79.48
2022-08-11T03:34:30.341Z,79.67
2022-08-11T03:35:30.312Z,79.58
2022-08-11T03:36:30.304Z,79.38
2022-08-11T03:37:30.253Z,80.11
2022-08-11T03:38:30.452Z,79.53
2022-08-11T03:39:30.239Z,80.11
2022-08-11T03:40:30.164Z,79.82
2022-08-11T03:42:03.715Z,79.53
2022-08-11T03:42:30.103Z,80.11
2022-08-11T03:43:30.070Z,80.11
2022-08-11T03:44:30.047Z,80.02
2022-08-11T03:45:30.013Z,79.73
2022-08-11T03:46:29.993Z,79.92
2022-08-11T03:47:29.960Z,80.02
2022-08-11T03:48:29.924Z,79.92
2022-08-11T03:49:29.893Z,79.92
2022-08-11T03:50:29.865Z,79.92
2022-08-11T03:51:44.724Z,79.92
2022-08-11T03:52:29.803Z,79.73
2022-08-11T03:53:29.773Z,80.30
2022-08-11T03:54:29.743Z,80.60
2022-08-11T03:55:29.713Z,80.30
2022-08-11T03:56:29.682Z,80.40
2022-08-11T03:57:29.651Z,80.60
2022-08-11T03:58:29.619Z,80.30
2022-08-11T03:59:29.592Z,80.30
2022-08-11T04:00:29.566Z,80.50
2022-08-11T04:01:29.592Z,80.40
2022-08-11T04:02:29.501Z,80.30
2022-08-11T04:03:31.448Z,80.50
2022-08-11T04:04:29.439Z,80.30
2022-08-11T04:05:29.411Z,80.36
2022-08-11T04:06:29.377Z,80.84
2022-08-11T04:07:29.348Z,80.55
2022-08-11T04:08:34.258Z,80.60
2022-08-11T04:09:29.289Z,80.36
2022-08-11T04:10:29.261Z,80.46
2022-08-11T04:11:29.228Z,80.94
2022-08-11T04:12:36.712Z,80.84
2022-08-11T04:13:29.167Z,80.46
2022-08-11T04:14:29.137Z,80.36
2022-08-11T04:15:29.112Z,80.17
2022-08-11T04:16:29.077Z,80.94
2022-08-11T04:17:29.239Z,80.55
2022-08-11T04:18:29.472Z,80.36
2022-08-11T04:19:28.983Z,81.23
2022-08-11T04:20:28.951Z,80.75
2022-08-11T04:21:28.922Z,80.75
2022-08-11T04:22:28.980Z,80.94
2022-08-11T04:24:36.299Z,80.94
2022-08-11T04:24:37.665Z,80.84
2022-08-11T04:25:28.805Z,80.84
2022-08-11T04:26:28.777Z,80.75
2022-08-11T04:27:36.911Z,80.84
2022-08-11T04:28:31.323Z,80.84
2022-08-11T04:29:36.432Z,80.84
2022-08-11T04:30:28.651Z,80.94
2022-08-11T04:31:51.247Z,80.94
2022-08-11T04:32:28.652Z,81.32
2022-08-11T04:33:28.562Z,81.42
2022-08-11T04:34:28.531Z,81.52
2022-08-11T04:35:28.502Z,81.23
2022-08-11T04:36:28.471Z,81.13
2022-08-11T04:37:28.436Z,81.42
2022-08-11T04:38:28.404Z,81.52
2022-08-11T04:39:28.422Z,81.52
2022-08-11T04:40:28.347Z,81.71
2022-08-11T04:41:28.312Z,81.52
2022-08-11T04:42:31.488Z,81.71
2022-08-11T04:43:28.256Z,81.32
2022-08-11T04:44:28.222Z,81.42
2022-08-11T04:45:28.197Z,81.61
2022-08-11T04:46:28.163Z,81.61
2022-08-11T04:47:28.133Z,81.71
2022-08-11T04:48:28.102Z,81.32
2022-08-11T04:49:33.825Z,81.52
2022-08-11T04:50:28.040Z,81.52
2022-08-11T04:51:28.012Z,81.81
2022-08-11T04:52:37.582Z,81.90
2022-08-11T04:53:28.812Z,81.52
2022-08-11T04:54:28.768Z,81.61
2022-08-11T04:55:27.895Z,81.61
2022-08-11T04:56:27.867Z,81.42
2022-08-11T04:57:27.826Z,81.71
2022-08-11T04:58:31.350Z,81.90
2022-08-11T04:59:27.766Z,81.81
2022-08-11T05:00:27.737Z,81.71
2022-08-11T05:01:27.756Z,81.61
2022-08-11T05:02:27.676Z,81.61
2022-08-11T05:03:27.649Z,82.09
2022-08-11T05:04:27.620Z,81.90
2022-08-11T05:05:27.588Z,81.81
2022-08-11T05:06:27.567Z,81.52
2022-08-11T05:07:27.525Z,81.61
2022-08-11T05:08:27.493Z,81.99
2022-08-11T05:09:27.463Z,82.29
2022-08-11T05:10:27.435Z,81.71
2022-08-11T05:11:27.406Z,81.81
2022-08-11T05:12:27.374Z,81.52
2022-08-11T05:13:27.345Z,81.90
2022-08-11T05:14:27.311Z,81.90
2022-08-11T05:15:27.284Z,81.81
2022-08-11T05:16:27.251Z,81.52
2022-08-11T05:17:27.220Z,81.71
2022-08-11T05:18:27.190Z,81.81
2022-08-11T05:19:27.158Z,81.61
2022-08-11T05:20:27.132Z,81.52
2022-08-11T05:21:27.096Z,81.61
2022-08-11T05:22:27.067Z,81.61
2022-08-11T05:23:27.041Z,81.71
2022-08-11T05:24:27.011Z,81.32
2022-08-11T05:26:45.072Z,81.32
2022-08-11T05:26:46.182Z,81.90
2022-08-11T05:27:26.918Z,81.61
2022-08-11T05:28:26.887Z,81.07
2022-08-11T05:29:26.855Z,81.46
2022-08-11T05:30:26.823Z,81.17
2022-08-11T05:31:26.796Z,81.32
2022-08-11T05:32:26.763Z,81.56
2022-08-11T05:33:26.735Z,81.23
2022-08-11T05:34:26.702Z,81.07
2022-08-11T05:36:00.552Z,81.37
2022-08-11T05:36:26.640Z,81.37
2022-08-11T05:37:27.456Z,81.56
2022-08-11T05:38:26.578Z,81.37
2022-08-11T05:39:36.427Z,81.46
2022-08-11T05:40:26.519Z,81.27
2022-08-11T05:41:26.489Z,80.98
2022-08-11T05:42:29.866Z,80.88
2022-08-11T05:43:26.430Z,81.46
2022-08-11T05:44:26.399Z,81.27
2022-08-11T05:45:26.373Z,81.17
2022-08-11T05:46:26.341Z,80.79
2022-08-11T05:47:26.308Z,80.21
2022-08-11T05:48:26.280Z,81.07
2022-08-11T05:49:26.246Z,80.98
2022-08-11T05:50:31.167Z,80.79
2022-08-11T05:51:30.314Z,80.88
2022-08-11T05:52:31.921Z,80.50
2022-08-11T05:53:26.129Z,80.11
2022-08-11T05:54:28.205Z,80.30
2022-08-11T05:55:26.070Z,80.30
2022-08-11T05:56:26.037Z,80.11
2022-08-11T05:57:50.104Z,80.69
2022-08-11T05:58:25.977Z,80.30
2022-08-11T05:59:25.941Z,80.02
2022-08-11T06:00:25.915Z,80.21
2022-08-11T06:01:25.933Z,80.02
2022-08-11T06:02:25.865Z,80.35
2022-08-11T06:03:25.841Z,79.73
2022-08-11T06:04:25.794Z,79.77
2022-08-11T06:05:25.762Z,80.06
2022-08-11T06:06:25.737Z,79.96
2022-08-11T06:07:25.702Z,79.58
2022-08-11T06:08:25.670Z,79.58
2022-08-11T06:09:25.643Z,79.48
2022-08-11T06:10:25.649Z,80.06
2022-08-11T06:11:43.997Z,79.86
2022-08-11T06:12:25.557Z,79.58
2022-08-11T06:13:25.522Z,79.77
2022-08-11T06:14:25.488Z,79.19
2022-08-11T06:15:25.464Z,79.19
2022-08-11T06:16:25.434Z,79.19
2022-08-11T06:17:25.402Z,79.10
2022-08-11T06:18:25.378Z,79.00
2022-08-11T06:19:25.346Z,79.28
2022-08-11T06:20:25.356Z,79.03
2022-08-11T06:21:25.286Z,78.94
2022-08-11T06:22:25.257Z,78.71
2022-08-11T06:23:25.230Z,78.75
2022-08-11T06:24:25.197Z,78.85
2022-08-11T06:25:25.163Z,78.17
2022-08-11T06:26:25.133Z,78.75
2022-08-11T06:27:25.105Z,78.56
2022-08-11T06:28:25.075Z,78.65
2022-08-11T06:29:37.974Z,78.56
2022-08-11T06:30:25.015Z,78.36
2022-08-11T06:31:24.982Z,78.46
2022-08-11T06:32:24.952Z,78.36
2022-08-11T06:33:24.925Z,78.75
2022-08-11T06:34:27.420Z,78.69
2022-08-11T06:35:24.863Z,78.21
2022-08-11T06:36:24.832Z,77.83
2022-08-11T06:37:24.817Z,77.83
2022-08-11T06:38:24.810Z,77.92
2022-08-11T06:39:24.805Z,77.73
2022-08-11T06:40:24.733Z,77.63
2022-08-11T06:41:24.685Z,77.73
2022-08-11T06:42:24.726Z,77.53
2022-08-11T06:43:24.629Z,77.83
2022-08-11T06:44:24.595Z,77.83
2022-08-11T06:45:24.568Z,77.73
2022-08-11T06:46:28.445Z,78.21
2022-08-11T06:47:24.508Z,77.86
2022-08-11T06:48:24.483Z,78.25
2022-08-11T06:49:24.449Z,78.06
2022-08-11T06:50:24.423Z,77.96
2022-08-11T06:51:24.389Z,77.19
2022-08-11T06:52:35.065Z,77.96
2022-08-11T06:53:24.331Z,77.96
2022-08-11T06:54:24.300Z,77.58
2022-08-11T06:55:57.282Z,77.48
2022-08-11T06:56:24.246Z,77.48
2022-08-11T06:57:31.518Z,77.09
2022-08-11T06:58:24.184Z,77.38
2022-08-11T06:59:24.157Z,77.48
2022-08-11T07:00:24.125Z,77.23
2022-08-11T07:01:24.153Z,76.93
2022-08-11T07:02:27.951Z,77.42
2022-08-11T07:03:24.068Z,77.33
2022-08-11T07:04:24.009Z,77.03
2022-08-11T07:05:23.989Z,76.45
2022-08-11T07:06:23.955Z,76.84
2022-08-11T07:07:23.926Z,76.40
2022-08-11T07:08:33.538Z,76.36
2022-08-11T07:09:23.869Z,76.65
2022-08-11T07:10:23.850Z,76.55
2022-08-11T07:11:23.806Z,76.10
2022-08-11T07:12:23.781Z,75.92
2022-08-11T07:13:44.607Z,76.20
2022-08-11T07:14:23.726Z,75.82
2022-08-11T07:15:23.694Z,75.34
2022-08-11T07:16:25.796Z,75.62
2022-08-11T07:17:23.639Z,74.85
2022-08-11T07:18:23.603Z,75.05
2022-08-11T07:19:23.577Z,75.18
2022-08-11T07:20:23.598Z,73.93
2022-08-11T07:22:01.444Z,74.41
2022-08-11T07:22:23.488Z,73.63
2022-08-11T07:23:23.464Z,74.02
2022-08-11T07:24:34.533Z,73.63
2022-08-11T07:25:23.407Z,73.83
2022-08-11T07:26:23.374Z,73.35
2022-08-11T07:27:23.350Z,73.19
2022-08-11T07:28:23.322Z,73.86
2022-08-11T07:29:23.294Z,73.67
2022-08-11T07:30:23.329Z,73.77
2022-08-11T07:31:23.239Z,73.38
2022-08-11T07:32:23.222Z,73.19
2022-08-11T07:34:07.093Z,72.80
2022-08-11T07:34:23.146Z,72.52
2022-08-11T07:35:23.130Z,73.00
2022-08-11T07:36:23.090Z,72.22
2022-08-11T07:37:23.067Z,72.16
2022-08-11T07:38:25.270Z,71.88
2022-08-11T07:39:23.104Z,71.00
2022-08-11T07:40:23.082Z,71.10
2022-08-11T07:41:22.951Z,70.42
2022-08-11T07:42:22.927Z,69.56
2022-08-11T07:43:22.901Z,69.10
2022-08-11T07:44:22.868Z,69.20
2022-08-11T07:45:22.846Z,68.72
2022-08-11T07:46:22.813Z,68.72
2022-08-11T07:47:22.787Z,68.43
2022-08-11T07:48:22.757Z,68.52
2022-08-11T07:49:22.727Z,68.82
2022-08-11T07:50:22.725Z,68.24
2022-08-11T07:51:22.673Z,67.59
2022-08-11T07:52:22.650Z,67.94
2022-08-11T07:53:22.616Z,67.88
2022-08-11T07:54:22.605Z,67.59
2022-08-11T07:55:50.187Z,67.49
2022-08-11T07:56:39.535Z,67.49
2022-08-11T07:58:00.185Z,67.21
2022-08-11T07:58:22.475Z,67.49
2022-08-11T07:59:22.448Z,67.63
2022-08-11T08:00:22.446Z,67.53
2022-08-11T08:01:22.901Z,66.75
2022-08-11T08:02:22.371Z,66.56
2022-08-11T08:03:22.343Z,66.17
2022-08-11T08:04:22.321Z,65.98
2022-08-11T08:05:22.288Z,65.98
2022-08-11T08:06:22.295Z,66.08
2022-08-11T08:07:22.232Z,65.88
2022-08-11T08:08:22.208Z,65.30
2022-08-11T08:09:22.171Z,64.95
2022-08-11T08:10:22.169Z,65.20
2022-08-11T08:11:27.582Z,65.34
2022-08-11T08:12:22.094Z,65.34
2022-08-11T08:13:22.073Z,64.95
2022-08-11T08:14:22.042Z,64.85
2022-08-11T08:15:22.014Z,64.85
2022-08-11T08:16:21.991Z,64.95
2022-08-11T08:17:21.955Z,64.98
2022-08-11T08:18:26.537Z,64.89
2022-08-11T08:19:22.125Z,64.40
2022-08-11T08:20:21.936Z,64.69
2022-08-11T08:21:21.853Z,64.59
2022-08-11T08:22:39.101Z,64.59
2022-08-11T08:23:21.791Z,64.69
2022-08-11T08:24:21.763Z,63.53
2022-08-11T08:25:21.740Z,63.82
2022-08-11T08:26:21.715Z,64.01
2022-08-11T08:27:21.685Z,63.82
2022-08-11T08:28:21.659Z,63.92
2022-08-11T08:29:21.632Z,63.85
2022-08-11T08:30:21.636Z,64.04
2022-08-11T08:31:21.578Z,63.46
2022-08-11T08:32:21.551Z,63.27
2022-08-11T08:33:21.524Z,62.88
2022-08-11T08:34:21.498Z,62.88
2022-08-11T08:35:21.465Z,62.79
2022-08-11T08:36:21.444Z,63.17
2022-08-11T08:37:46.730Z,63.49
2022-08-11T08:38:21.390Z,63.20
2022-08-11T08:39:21.411Z,63.10
2022-08-11T08:40:21.489Z,63.78
2022-08-11T08:41:21.388Z,63.30
2022-08-11T08:42:21.284Z,63.01
2022-08-11T08:43:21.255Z,62.62
2022-08-11T08:44:37.934Z,62.72
2022-08-11T08:45:21.200Z,62.82
2022-08-11T08:46:21.174Z,62.62
2022-08-11T08:47:41.761Z,62.55
2022-08-11T08:48:21.124Z,62.85
2022-08-11T08:49:21.099Z,62.16
2022-08-11T08:50:21.068Z,62.26
2022-08-11T08:51:21.958Z,62.16
2022-08-11T08:52:29.614Z,61.39
2022-08-11T08:53:20.990Z,61.49
2022-08-11T08:54:20.965Z,61.68
2022-08-11T08:55:20.950Z,61.52
2022-08-11T08:56:20.910Z,61.61
2022-08-11T08:57:20.885Z,61.91
2022-08-11T08:58:20.856Z,61.61
2022-08-11T08:59:20.835Z,61.22
2022-08-11T09:00:23.452Z,61.22
2022-08-11T09:01:20.877Z,61.13
2022-08-11T09:02:34.727Z,61.22
2022-08-11T09:03:40.978Z,60.84
2022-08-11T09:04:21.101Z,60.38
2022-08-11T09:05:20.679Z,60.94
2022-08-11T09:06:20.653Z,60.38
2022-08-11T09:07:20.637Z,60.97
2022-08-11T09:08:20.595Z,60.38
2022-08-11T09:09:20.576Z,60.28
2022-08-11T09:10:20.639Z,60.48
2022-08-11T09:11:20.517Z,61.07
2022-08-11T09:12:36.228Z,60.38
2022-08-11T09:13:20.472Z,59.80
2022-08-11T09:14:20.441Z,59.51
2022-08-11T09:15:20.415Z,60.51
2022-08-11T09:16:20.402Z,60.61
2022-08-11T09:17:20.364Z,60.41
2022-08-11T09:18:20.337Z,60.12
2022-08-11T09:19:20.315Z,59.74
2022-08-11T09:20:20.317Z,59.74
2022-08-11T09:21:39.287Z,59.92
2022-08-11T09:22:20.242Z,59.74
2022-08-11T09:24:26.132Z,59.15
2022-08-11T09:25:20.160Z,59.18
2022-08-11T09:26:20.134Z,59.44
2022-08-11T09:27:20.103Z,59.08
2022-08-11T09:28:20.076Z,59.08
2022-08-11T09:29:20.056Z,58.98
2022-08-11T09:30:20.053Z,58.69
2022-08-11T09:31:21.958Z,58.89
2022-08-11T09:32:19.976Z,58.79
2022-08-11T09:33:19.954Z,58.40
2022-08-11T09:34:19.928Z,58.11
2022-08-11T09:35:19.911Z,58.31
2022-08-11T09:36:19.876Z,57.33
2022-08-11T09:37:28.514Z,56.56
2022-08-11T09:38:19.827Z,56.59
2022-08-11T09:39:19.902Z,56.68
2022-08-11T09:40:19.801Z,56.10
2022-08-11T09:41:19.757Z,55.71
2022-08-11T09:42:23.169Z,56.00
2022-08-11T09:43:19.697Z,56.32
2022-08-11T09:44:19.675Z,55.44
2022-08-11T09:45:19.689Z,55.44
2022-08-11T09:46:19.620Z,55.35
2022-08-11T09:47:19.602Z,54.86
2022-08-11T09:48:19.571Z,54.66
2022-08-11T09:49:19.550Z,55.25
2022-08-11T09:50:19.594Z,55.35
2022-08-11T09:51:19.503Z,55.15
2022-08-11T09:52:19.470Z,55.08
2022-08-11T09:53:35.954Z,55.27
2022-08-11T09:54:19.429Z,54.79
2022-08-11T09:55:19.397Z,54.79
2022-08-11T09:56:19.369Z,53.42
2022-08-11T09:57:19.347Z,53.23
2022-08-11T09:58:42.872Z,52.84
2022-08-11T09:59:19.298Z,51.58
2022-08-11T10:00:19.305Z,51.39
2022-08-11T10:01:19.354Z,51.90
2022-08-11T10:02:19.222Z,51.90
2022-08-11T10:03:19.197Z,52.87
2022-08-11T10:04:19.174Z,53.36
2022-08-11T10:05:19.149Z,51.90
2022-08-11T10:06:19.125Z,50.34
2022-08-11T10:07:19.105Z,50.63
2022-08-11T10:08:19.078Z,50.07
2022-08-11T10:09:19.079Z,49.29
2022-08-11T10:10:19.027Z,48.02
2022-08-11T10:11:19.002Z,48.41
2022-08-11T10:12:18.978Z,49.39
2022-08-11T10:14:30.375Z,48.41
2022-08-11T10:14:34.017Z,48.71
2022-08-11T10:15:18.905Z,47.15
2022-08-11T10:16:18.877Z,47.25
2022-08-11T10:17:18.860Z,46.56
2022-08-11T10:18:18.825Z,45.98
2022-08-11T10:19:18.804Z,46.47
2022-08-11T10:20:22.641Z,46.76
2022-08-11T10:21:18.751Z,46.97
2022-08-11T10:22:18.729Z,47.36
2022-08-11T10:23:18.706Z,47.36
2022-08-11T10:24:18.680Z,47.66
2022-08-11T10:25:19.846Z,47.66
2022-08-11T10:26:18.633Z,47.75
2022-08-11T10:27:18.607Z,46.02
2022-08-11T10:28:33.616Z,45.03
2022-08-11T10:29:18.907Z,44.85
2022-08-11T10:30:18.535Z,45.44
2022-08-11T10:31:18.515Z,45.83
2022-08-11T10:32:18.485Z,45.44
2022-08-11T10:33:18.965Z,44.85
2022-08-11T10:34:18.432Z,44.76
2022-08-11T10:35:18.433Z,44.46
2022-08-11T10:36:18.389Z,44.68
2022-08-11T10:37:18.393Z,45.36
2022-08-11T10:38:18.452Z,45.07
2022-08-11T10:39:18.419Z,45.65
2022-08-11T10:40:18.330Z,45.29
2022-08-11T10:41:18.264Z,45.09
2022-08-11T10:42:35.072Z,45.48
2022-08-11T10:44:01.229Z,45.70
2022-08-11T10:44:18.193Z,45.21
2022-08-11T10:45:18.171Z,44.34
2022-08-11T10:46:18.150Z,43.65
2022-08-11T10:47:18.124Z,43.95
2022-08-11T10:48:18.101Z,44.26
2022-08-11T10:49:18.081Z,43.77
2022-08-11T10:50:18.056Z,44.06
2022-08-11T10:51:50.455Z,44.09
2022-08-11T10:52:18.016Z,43.69
2022-08-11T10:53:17.991Z,44.28
2022-08-11T10:54:17.965Z,43.81
2022-08-11T10:55:17.948Z,43.52
2022-08-11T10:56:17.926Z,43.71
2022-08-11T10:57:17.895Z,43.91
2022-08-11T10:58:17.878Z,43.84
2022-08-11T10:59:17.860Z,43.71
2022-08-11T11:00:17.834Z,44.03
2022-08-11T11:01:17.883Z,44.23
2022-08-11T11:02:17.787Z,44.05
2022-08-11T11:03:22.817Z,44.44
2022-08-11T11:04:17.743Z,43.88
2022-08-11T11:05:17.720Z,42.50
2022-08-11T11:06:28.183Z,43.41
2022-08-11T11:07:17.764Z,43.41
2022-08-11T11:08:17.658Z,42.55
2022-08-11T11:09:17.635Z,42.35
2022-08-11T11:10:17.616Z,42.55
2022-08-11T11:11:18.331Z,42.18
2022-08-11T11:12:17.571Z,42.47
2022-08-11T11:13:17.549Z,42.37
2022-08-11T11:14:17.530Z,41.80
2022-08-11T11:15:18.104Z,42.79
2022-08-11T11:16:17.489Z,42.41
2022-08-11T11:17:17.472Z,41.24
2022-08-11T11:18:17.462Z,40.76
2022-08-11T11:19:17.440Z,40.76
2022-08-11T11:20:34.718Z,40.86
2022-08-11T11:21:17.392Z,40.88
2022-08-11T11:22:17.370Z,40.00
2022-08-11T11:23:17.352Z,40.21
2022-08-11T11:24:17.327Z,40.51
2022-08-11T11:25:17.315Z,39.64
2022-08-11T11:26:17.289Z,39.44
2022-08-11T11:27:17.270Z,39.34
2022-08-11T11:28:17.253Z,39.25
2022-08-11T11:29:17.235Z,38.78
2022-08-11T11:30:17.209Z,38.38
2022-08-11T11:31:17.193Z,38.70
2022-08-11T11:32:17.179Z,38.20
2022-08-11T11:33:17.154Z,38.01
2022-08-11T11:34:17.135Z,38.79
2022-08-11T11:35:17.119Z,37.51
2022-08-11T11:36:17.101Z,37.51
2022-08-11T11:37:17.097Z,38.10
2022-08-11T11:38:17.059Z,37.83
2022-08-11T11:39:17.075Z,37.63
2022-08-11T11:40:17.023Z,37.34
2022-08-11T11:41:17.008Z,37.14
2022-08-11T11:42:16.994Z,37.34
2022-08-11T11:43:16.971Z,36.96
2022-08-11T11:44:16.958Z,36.96
2022-08-11T11:45:24.104Z,36.96
2022-08-11T11:46:16.923Z,36.88
2022-08-11T11:47:16.899Z,37.49
2022-08-11T11:48:16.884Z,36.90
2022-08-11T11:49:17.520Z,36.91
2022-08-11T11:50:16.844Z,35.33
2022-08-11T11:51:16.829Z,35.53
2022-08-11T11:52:16.815Z,35.93
2022-08-11T11:53:16.796Z,35.63
2022-08-11T11:54:16.771Z,35.64
2022-08-11T11:55:16.779Z,35.35
2022-08-11T11:56:16.741Z,35.76
2022-08-11T11:57:16.726Z,35.66
2022-08-11T11:58:18.620Z,34.99
2022-08-11T11:59:16.690Z,34.59
2022-08-11T12:00:16.678Z,34.59
2022-08-11T12:01:16.655Z,34.30
2022-08-11T12:02:16.637Z,34.51
2022-08-11T12:03:16.705Z,34.12
2022-08-11T12:04:16.603Z,34.01
2022-08-11T12:05:16.587Z,34.12
2022-08-11T12:06:16.573Z,34.63
2022-08-11T12:07:16.556Z,34.43
2022-08-11T12:08:16.553Z,34.05
2022-08-11T12:09:16.520Z,33.65
2022-08-11T12:10:16.504Z,32.96
2022-08-11T12:11:16.489Z,33.47
2022-08-11T12:12:16.470Z,33.07
2022-08-11T12:13:16.456Z,32.60
2022-08-11T12:14:16.436Z,32.71
2022-08-11T12:15:16.438Z,32.48
2022-08-11T12:16:33.990Z,32.00
2022-08-11T12:17:16.388Z,32.40
2022-08-11T12:18:16.368Z,32.42
2022-08-11T12:19:16.353Z,32.21
2022-08-11T12:20:33.415Z,32.31
2022-08-11T12:21:16.324Z,31.93
2022-08-11T12:22:16.308Z,32.03
2022-08-11T12:23:16.292Z,31.45
2022-08-11T12:24:16.273Z,31.95
2022-08-11T12:25:16.258Z,32.06
2022-08-11T12:26:26.771Z,31.87
2022-08-11T12:27:17.622Z,31.26
2022-08-11T12:28:16.208Z,31.37
2022-08-11T12:29:16.197Z,31.17
2022-08-11T12:30:16.174Z,30.87
2022-08-11T12:31:16.163Z,30.89
2022-08-11T12:32:16.141Z,30.38
2022-08-11T12:33:16.128Z,31.17
2022-08-11T12:34:16.112Z,30.57
2022-08-11T12:35:16.099Z,30.59
2022-08-11T12:36:16.085Z,30.19
2022-08-11T12:37:16.073Z,30.09
2022-08-11T12:38:16.048Z,30.00
2022-08-11T12:39:24.336Z,30.21
2022-08-11T12:40:49.706Z,29.61
2022-08-11T12:41:16.769Z,30.21
2022-08-11T12:42:15.982Z,30.21
2022-08-11T12:43:21.697Z,31.02
2022-08-11T12:44:15.952Z,30.63
2022-08-11T12:45:22.243Z,29.94
2022-08-11T12:46:15.926Z,30.04
2022-08-11T12:47:15.905Z,29.54
2022-08-11T12:48:57.795Z,29.44
2022-08-11T12:49:15.883Z,28.85
2022-08-11T12:50:22.917Z,28.55
2022-08-11T12:51:15.844Z,28.74
2022-08-11T12:52:15.982Z,29.24
2022-08-11T12:53:15.811Z,28.74